createdAt,value
2018-08-31T00:00:51.136Z,13.03
2018-08-31T00:05:34.414Z,5.77
2018-08-31T00:08:14.684Z,3.20
2018-08-31T00:12:53.317Z,3.10
2018-08-31T00:15:21.701Z,3.90
2018-08-31T00:17:50.051Z,2.40
2018-08-31T00:20:18.392Z,3.00
2018-08-31T00:22:46.700Z,3.37
2018-08-31T00:25:56.144Z,3.30
2018-08-31T00:30:41.638Z,3.00
2018-08-31T00:33:27.337Z,2.37
2018-08-31T00:36:12.524Z,2.90
2018-08-31T00:40:54.000Z,2.00
2018-08-31T00:43:36.121Z,2.47
2018-08-31T00:46:04.730Z,2.50
2018-08-31T00:48:33.072Z,2.87
2018-08-31T00:51:01.441Z,2.60
2018-08-31T00:53:29.825Z,2.77
2018-08-31T00:55:58.936Z,2.90
2018-08-31T00:58:27.290Z,3.50
2018-08-31T01:00:55.626Z,4.10
2018-08-31T01:03:23.945Z,4.13
2018-08-31T01:05:52.409Z,2.83
2018-08-31T01:08:20.742Z,3.17
2018-08-31T01:10:49.086Z,3.43
2018-08-31T01:13:18.166Z,3.33
2018-08-31T01:15:46.525Z,3.30
2018-08-31T01:18:14.869Z,2.57
2018-08-31T01:20:43.218Z,3.87
2018-08-31T01:23:11.537Z,3.30
2018-08-31T01:25:40.827Z,3.33
2018-08-31T01:28:09.214Z,3.20
2018-08-31T01:30:37.565Z,3.20
2018-08-31T01:33:05.913Z,3.50
2018-08-31T01:35:34.282Z,3.00
2018-08-31T01:38:02.584Z,3.10
2018-08-31T01:40:30.927Z,3.47
2018-08-31T01:42:59.281Z,3.63
2018-08-31T01:45:27.645Z,3.23
2018-08-31T01:47:56.081Z,3.63
2018-08-31T01:50:24.399Z,3.73
2018-08-31T01:52:52.828Z,3.10
2018-08-31T01:55:26.200Z,3.47
2018-08-31T01:57:54.566Z,4.47
2018-08-31T02:00:22.928Z,3.90
2018-08-31T02:02:51.293Z,3.90
2018-08-31T02:05:19.644Z,4.30
2018-08-31T02:07:47.969Z,4.40
2018-08-31T02:10:16.309Z,4.27
2018-08-31T02:12:44.625Z,4.60
2018-08-31T02:15:12.957Z,3.73
2018-08-31T02:17:41.272Z,4.57
2018-08-31T02:20:09.628Z,18.30
2018-08-31T02:22:37.948Z,9.40
2018-08-31T02:25:06.332Z,8.03
2018-08-31T02:27:34.655Z,4.37
2018-08-31T02:30:03.012Z,3.73
2018-08-31T02:32:31.394Z,4.90
2018-08-31T02:34:59.733Z,4.40
2018-08-31T02:37:28.126Z,3.90
2018-08-31T02:39:56.485Z,4.90
2018-08-31T02:42:25.021Z,4.30
2018-08-31T02:44:53.343Z,4.87
2018-08-31T02:47:22.037Z,4.20
2018-08-31T02:49:50.386Z,4.80
2018-08-31T02:52:18.740Z,5.17
2018-08-31T02:54:47.129Z,4.17
2018-08-31T02:57:15.457Z,4.40
2018-08-31T02:59:43.820Z,4.23
2018-08-31T03:02:12.153Z,4.60
2018-08-31T03:04:41.085Z,4.70
2018-08-31T03:07:09.394Z,5.00
2018-08-31T03:09:37.747Z,4.67
2018-08-31T03:12:06.101Z,4.57
2018-08-31T03:14:34.481Z,5.70
2018-08-31T03:17:02.810Z,3.80
2018-08-31T03:19:31.168Z,3.93
2018-08-31T03:21:59.516Z,5.03
2018-08-31T03:24:27.837Z,4.20
2018-08-31T03:26:56.205Z,4.70
2018-08-31T03:29:24.522Z,4.40
2018-08-31T03:31:52.819Z,3.40
2018-08-31T03:34:21.160Z,4.00
2018-08-31T03:36:49.516Z,4.33
2018-08-31T03:39:17.848Z,3.37
2018-08-31T03:41:46.178Z,4.07
2018-08-31T03:44:14.497Z,5.57
2018-08-31T03:46:42.801Z,4.07
2018-08-31T03:49:11.234Z,4.50
2018-08-31T03:51:39.625Z,3.57
2018-08-31T03:54:08.014Z,4.13
2018-08-31T03:56:36.321Z,3.67
2018-08-31T03:59:04.671Z,4.07
2018-08-31T04:01:33.052Z,4.00
2018-08-31T04:04:01.439Z,4.37
2018-08-31T04:06:29.772Z,4.20
2018-08-31T04:08:58.104Z,4.20
2018-08-31T04:11:26.425Z,4.23
2018-08-31T04:13:54.791Z,4.63
2018-08-31T04:16:23.101Z,4.50
2018-08-31T04:18:51.456Z,5.87
2018-08-31T04:21:19.747Z,4.43
2018-08-31T04:23:48.121Z,4.30
2018-08-31T04:26:17.005Z,4.50
2018-08-31T04:28:45.376Z,4.80
2018-08-31T04:31:13.676Z,5.60
2018-08-31T04:33:42.016Z,4.00
2018-08-31T04:36:10.316Z,5.20
2018-08-31T04:38:38.698Z,4.73
2018-08-31T04:41:07.089Z,4.70
2018-08-31T04:43:35.396Z,4.13
2018-08-31T04:46:03.738Z,3.73
2018-08-31T04:48:32.086Z,4.10
2018-08-31T04:51:00.427Z,5.00
2018-08-31T04:53:28.748Z,3.60
2018-08-31T04:55:57.158Z,3.70
2018-08-31T04:58:25.494Z,4.47
2018-08-31T05:00:53.834Z,4.03
2018-08-31T05:03:22.206Z,4.80
2018-08-31T05:05:50.554Z,3.63
2018-08-31T05:08:18.883Z,5.00
2018-08-31T05:10:47.197Z,4.70
2018-08-31T05:13:15.553Z,3.67
2018-08-31T05:15:43.880Z,4.60
2018-08-31T05:18:12.719Z,4.37
2018-08-31T05:20:41.085Z,3.87
2018-08-31T05:23:09.606Z,3.70
2018-08-31T05:25:38.030Z,3.87
2018-08-31T05:28:06.379Z,3.60
2018-08-31T05:30:34.680Z,3.23
2018-08-31T05:33:03.101Z,3.40
2018-08-31T05:35:31.401Z,3.60
2018-08-31T05:37:59.769Z,4.83
2018-08-31T05:40:28.150Z,4.70
2018-08-31T05:42:56.489Z,3.37
2018-08-31T05:45:24.825Z,4.67
2018-08-31T05:47:53.182Z,4.30
2018-08-31T05:50:21.488Z,4.03
2018-08-31T05:52:49.799Z,4.27
2018-08-31T05:55:18.119Z,3.73
2018-08-31T05:57:46.457Z,3.83
2018-08-31T06:00:14.866Z,4.40
2018-08-31T06:02:43.169Z,3.80
2018-08-31T06:05:11.472Z,4.17
2018-08-31T06:07:39.826Z,4.20
2018-08-31T06:10:08.219Z,4.20
2018-08-31T06:12:36.537Z,4.20
2018-08-31T06:15:05.106Z,4.20
2018-08-31T06:17:33.474Z,4.43
2018-08-31T06:20:01.788Z,5.07
2018-08-31T06:22:30.120Z,4.60
2018-08-31T06:24:59.034Z,3.90
2018-08-31T06:27:27.376Z,4.53
2018-08-31T06:29:55.681Z,4.63
2018-08-31T06:32:24.013Z,6.40
2018-08-31T06:34:52.333Z,5.33
2018-08-31T06:37:20.733Z,6.50
2018-08-31T06:39:49.201Z,6.73
2018-08-31T06:42:18.165Z,7.80
2018-08-31T06:44:47.080Z,6.17
2018-08-31T06:47:15.426Z,6.27
2018-08-31T06:49:43.803Z,5.90
2018-08-31T06:52:12.189Z,5.90
2018-08-31T06:54:41.270Z,5.70
2018-08-31T06:57:10.284Z,5.60
2018-08-31T06:59:38.592Z,6.10
2018-08-31T07:02:06.920Z,6.70
2018-08-31T07:04:35.281Z,5.80
2018-08-31T07:07:03.640Z,5.60
2018-08-31T07:09:31.960Z,5.80
2018-08-31T07:12:00.276Z,5.93
2018-08-31T07:14:29.204Z,6.43
2018-08-31T07:16:57.582Z,6.10
2018-08-31T07:19:26.025Z,5.30
2018-08-31T07:21:54.983Z,5.17
2018-08-31T07:24:23.309Z,5.53
2018-08-31T07:26:51.701Z,5.23
2018-08-31T07:29:19.985Z,5.00
2018-08-31T07:31:48.302Z,6.10
2018-08-31T07:34:16.602Z,4.90
2018-08-31T07:36:44.929Z,5.20
2018-08-31T07:39:13.261Z,4.57
2018-08-31T07:41:41.584Z,4.87
2018-08-31T07:44:09.995Z,4.50
2018-08-31T07:46:38.343Z,5.07
2018-08-31T07:49:07.228Z,4.90
2018-08-31T07:51:35.556Z,3.93
2018-08-31T07:54:03.942Z,4.07
2018-08-31T07:56:32.255Z,4.70
2018-08-31T07:59:00.558Z,4.23
2018-08-31T08:01:29.105Z,4.20
2018-08-31T08:03:57.488Z,5.70
2018-08-31T08:06:26.525Z,4.13
2018-08-31T08:08:54.880Z,4.47
2018-08-31T08:11:23.259Z,4.33
2018-08-31T08:13:52.208Z,3.63
2018-08-31T08:16:20.541Z,4.10
2018-08-31T08:18:48.906Z,3.63
2018-08-31T08:21:17.250Z,3.20
2018-08-31T08:23:45.627Z,3.07
2018-08-31T08:26:13.952Z,3.37
2018-08-31T08:28:43.171Z,2.80
2018-08-31T08:31:11.496Z,3.10
2018-08-31T08:33:39.813Z,3.47
2018-08-31T08:36:08.266Z,2.03
2018-08-31T08:38:36.497Z,2.27
2018-08-31T08:41:04.816Z,1.90
2018-08-31T08:43:33.128Z,2.37
2018-08-31T08:46:01.461Z,2.07
2018-08-31T08:48:29.838Z,2.30
2018-08-31T08:50:58.181Z,2.23
2018-08-31T08:53:26.496Z,2.47
2018-08-31T08:55:54.821Z,1.50
2018-08-31T08:58:24.098Z,2.50
2018-08-31T09:00:52.344Z,1.77
2018-08-31T09:03:20.641Z,2.07
2018-08-31T09:05:48.975Z,2.40
2018-08-31T09:08:17.302Z,1.97
2018-08-31T09:10:45.598Z,1.60
2018-08-31T09:13:13.909Z,1.63
2018-08-31T09:15:42.216Z,2.60
2018-08-31T09:18:10.581Z,1.80
2018-08-31T09:20:39.533Z,1.93
2018-08-31T09:23:07.853Z,1.40
2018-08-31T09:25:36.250Z,2.50
2018-08-31T09:28:04.658Z,1.80
2018-08-31T09:30:39.141Z,2.20
2018-08-31T09:33:07.500Z,1.33
2018-08-31T09:35:35.808Z,1.67
2018-08-31T09:38:04.310Z,1.40
2018-08-31T09:40:33.241Z,1.90
2018-08-31T09:43:01.561Z,1.20
2018-08-31T09:45:29.909Z,1.87
2018-08-31T09:47:58.228Z,1.30
2018-08-31T09:50:26.544Z,1.20
2018-08-31T09:52:54.864Z,1.90
2018-08-31T09:55:23.170Z,1.50
2018-08-31T09:57:51.540Z,1.03
2018-08-31T10:00:25.183Z,1.37
2018-08-31T10:02:58.782Z,1.50
2018-08-31T10:05:27.102Z,1.90
2018-08-31T10:07:55.414Z,1.70
2018-08-31T10:10:23.737Z,1.97
2018-08-31T10:12:52.708Z,2.40
2018-08-31T10:15:21.062Z,1.93
2018-08-31T10:17:49.617Z,1.80
2018-08-31T10:20:18.024Z,1.90
2018-08-31T10:22:46.356Z,1.90
2018-08-31T10:25:14.669Z,1.57
2018-08-31T10:27:43.028Z,2.07
2018-08-31T10:30:11.423Z,2.67
2018-08-31T10:32:39.726Z,3.33
2018-08-31T10:35:08.126Z,2.17
2018-08-31T10:37:36.470Z,3.03
2018-08-31T10:40:04.820Z,1.90
2018-08-31T10:42:33.185Z,1.90
2018-08-31T10:45:01.536Z,1.50
2018-08-31T10:47:29.859Z,1.90
2018-08-31T10:49:58.170Z,4.83
2018-08-31T10:52:26.513Z,1.83
2018-08-31T10:54:56.553Z,2.30
2018-08-31T10:57:24.877Z,1.57
2018-08-31T10:59:54.017Z,2.10
2018-08-31T11:02:23.349Z,1.60
2018-08-31T11:04:51.662Z,2.13
2018-08-31T11:07:19.988Z,1.50
2018-08-31T11:09:48.309Z,1.20
2018-08-31T11:12:16.696Z,2.27
2018-08-31T11:14:45.018Z,1.73
2018-08-31T11:17:13.344Z,4.70
2018-08-31T11:19:41.643Z,1.97
2018-08-31T11:22:09.973Z,1.80
2018-08-31T11:24:38.281Z,1.57
2018-08-31T11:27:06.605Z,1.40
2018-08-31T11:29:34.933Z,1.10
2018-08-31T11:32:03.481Z,1.33
2018-08-31T11:34:31.813Z,1.33
2018-08-31T11:37:00.143Z,1.60
2018-08-31T11:39:28.469Z,1.77
2018-08-31T11:41:56.804Z,1.50
2018-08-31T11:44:25.100Z,1.87
2018-08-31T11:46:53.428Z,1.73
2018-08-31T11:49:21.726Z,1.00
2018-08-31T11:51:50.085Z,1.27
2018-08-31T11:54:18.388Z,1.30
2018-08-31T11:56:46.721Z,1.33
2018-08-31T11:59:15.039Z,2.53
2018-08-31T12:01:46.980Z,1.43
2018-08-31T12:04:15.320Z,1.33
2018-08-31T12:06:43.613Z,1.10
2018-08-31T12:09:12.020Z,1.40
2018-08-31T12:11:40.346Z,1.37
2018-08-31T12:14:08.676Z,1.33
2018-08-31T12:16:37.044Z,1.63
2018-08-31T12:19:05.396Z,1.63
2018-08-31T12:21:33.789Z,1.10
2018-08-31T12:24:02.134Z,1.40
2018-08-31T12:26:30.599Z,1.40
2018-08-31T12:28:58.944Z,1.30
2018-08-31T12:31:27.425Z,1.37
2018-08-31T12:33:55.789Z,1.30
2018-08-31T12:36:24.126Z,1.37
2018-08-31T12:38:52.460Z,2.50
2018-08-31T12:41:20.813Z,1.40
2018-08-31T12:43:49.186Z,1.20
2018-08-31T12:46:17.468Z,1.60
2018-08-31T12:48:45.907Z,1.27
2018-08-31T12:51:14.268Z,1.30
2018-08-31T12:53:42.907Z,1.10
2018-08-31T12:56:11.988Z,1.30
2018-08-31T12:58:40.901Z,1.47
2018-08-31T13:01:09.891Z,1.33
2018-08-31T13:03:38.422Z,2.10
2018-08-31T13:06:07.933Z,1.40
2018-08-31T13:08:36.623Z,1.60
2018-08-31T13:11:05.961Z,1.20
2018-08-31T13:13:35.065Z,6.33
2018-08-31T13:16:04.788Z,3.57
2018-08-31T13:18:33.720Z,2.40
2018-08-31T13:21:02.646Z,2.03
2018-08-31T13:23:31.535Z,1.87
2018-08-31T13:26:00.835Z,1.70
2018-08-31T13:28:29.520Z,1.67
2018-08-31T13:30:58.100Z,2.13
2018-08-31T13:33:26.674Z,1.83
2018-08-31T13:35:55.371Z,1.50
2018-08-31T13:38:24.144Z,7.63
2018-08-31T13:40:53.284Z,5.00
2018-08-31T13:43:21.939Z,4.10
2018-08-31T13:45:50.698Z,2.17
2018-08-31T13:48:19.278Z,1.33
2018-08-31T13:50:47.933Z,1.70
2018-08-31T13:53:16.634Z,1.83
2018-08-31T13:55:45.448Z,2.13
2018-08-31T13:58:14.401Z,1.30
2018-08-31T14:00:43.334Z,1.70
2018-08-31T14:03:12.270Z,1.87
2018-08-31T14:05:41.224Z,1.23
2018-08-31T14:08:10.020Z,1.73
2018-08-31T14:10:38.910Z,1.40
2018-08-31T14:13:07.604Z,1.50
2018-08-31T14:15:36.178Z,1.50
2018-08-31T14:18:04.761Z,1.80
2018-08-31T14:20:33.545Z,1.77
2018-08-31T14:23:02.277Z,1.67
2018-08-31T14:25:31.044Z,1.70
2018-08-31T14:27:59.574Z,1.43
2018-08-31T14:30:28.244Z,1.60
2018-08-31T14:32:56.873Z,1.70
2018-08-31T14:35:25.352Z,1.47
2018-08-31T14:37:53.936Z,1.83
2018-08-31T14:40:22.250Z,1.53
2018-08-31T14:42:50.588Z,1.70
2018-08-31T14:45:18.909Z,1.40
2018-08-31T14:47:47.357Z,1.40
2018-08-31T14:50:15.677Z,1.67
2018-08-31T14:52:43.990Z,1.90
2018-08-31T14:55:12.329Z,2.10
2018-08-31T14:57:40.702Z,1.43
2018-08-31T15:00:09.038Z,1.73
2018-08-31T15:02:37.357Z,1.37
2018-08-31T15:05:05.718Z,1.30
2018-08-31T15:07:34.065Z,2.00
2018-08-31T15:10:02.408Z,1.50
2018-08-31T15:12:30.845Z,1.00
2018-08-31T15:14:59.218Z,1.90
2018-08-31T15:17:27.620Z,2.00
2018-08-31T15:19:55.952Z,1.40
2018-08-31T15:22:24.265Z,1.77
2018-08-31T15:24:52.638Z,6.33
2018-08-31T15:27:20.972Z,7.33
2018-08-31T15:29:49.289Z,3.40
2018-08-31T15:32:17.606Z,1.67
2018-08-31T15:34:45.937Z,1.50
2018-08-31T15:37:14.296Z,2.30
2018-08-31T15:39:42.622Z,1.53
2018-08-31T15:42:11.055Z,3.10
2018-08-31T15:44:39.372Z,1.67
2018-08-31T15:47:07.715Z,1.73
2018-08-31T15:49:36.123Z,1.50
2018-08-31T15:52:04.570Z,2.13
2018-08-31T15:54:33.486Z,1.50
2018-08-31T15:57:02.324Z,1.53
2018-08-31T15:59:31.507Z,1.93
2018-08-31T16:01:59.869Z,1.27
2018-08-31T16:04:28.208Z,1.20
2018-08-31T16:06:57.710Z,2.33
2018-08-31T16:09:27.046Z,1.47
2018-08-31T16:11:55.425Z,1.53
2018-08-31T16:14:23.844Z,1.00
2018-08-31T16:16:53.320Z,1.67
2018-08-31T16:19:28.277Z,1.27
2018-08-31T16:21:56.572Z,1.50
2018-08-31T16:24:26.395Z,1.33
2018-08-31T16:26:54.787Z,1.33
2018-08-31T16:29:23.117Z,1.33
2018-08-31T16:31:51.434Z,1.60
2018-08-31T16:34:19.783Z,1.67
2018-08-31T16:36:48.090Z,3.23
2018-08-31T16:39:16.462Z,1.83
2018-08-31T16:41:44.785Z,2.00
2018-08-31T16:44:13.193Z,1.27
2018-08-31T16:46:41.497Z,1.27
2018-08-31T16:49:09.821Z,1.10
2018-08-31T16:51:38.133Z,1.00
2018-08-31T16:54:06.297Z,1.60
2018-08-31T16:56:34.689Z,1.63
2018-08-31T16:59:03.012Z,1.70
2018-08-31T17:01:31.319Z,1.20
2018-08-31T17:03:59.645Z,1.30
2018-08-31T17:06:27.970Z,1.67
2018-08-31T17:08:56.282Z,2.00
2018-08-31T17:11:25.860Z,1.53
2018-08-31T17:13:54.183Z,1.50
2018-08-31T17:16:22.473Z,1.60
2018-08-31T17:18:50.792Z,1.63
2018-08-31T17:21:19.096Z,1.40
2018-08-31T17:23:47.450Z,1.60
2018-08-31T17:26:20.968Z,1.90
2018-08-31T17:28:54.576Z,1.80
2018-08-31T17:31:28.543Z,1.97
2018-08-31T17:34:06.981Z,1.87
2018-08-31T17:36:41.387Z,2.23
2018-08-31T17:39:13.826Z,1.77
2018-08-31T17:41:47.258Z,1.60
2018-08-31T17:44:15.762Z,1.40
2018-08-31T17:46:44.672Z,1.87
2018-08-31T17:49:13.433Z,1.23
2018-08-31T17:51:41.849Z,1.90
2018-08-31T17:54:10.216Z,1.53
2018-08-31T17:56:39.914Z,1.83
2018-08-31T17:59:09.176Z,1.60
2018-08-31T18:01:37.527Z,1.50
2018-08-31T18:04:07.152Z,1.70
2018-08-31T18:06:35.901Z,1.50
2018-08-31T18:09:05.105Z,1.40
2018-08-31T18:11:33.589Z,1.80
2018-08-31T18:14:01.937Z,1.70
2018-08-31T18:16:30.309Z,1.50
2018-08-31T18:18:58.599Z,1.50
2018-08-31T18:21:27.090Z,1.83
2018-08-31T18:23:55.413Z,2.03
2018-08-31T18:26:25.008Z,1.30
2018-08-31T18:28:54.712Z,1.67
2018-08-31T18:31:23.593Z,1.73
2018-08-31T18:33:51.911Z,1.47
2018-08-31T18:36:20.317Z,1.47
2018-08-31T18:38:48.677Z,2.30
2018-08-31T18:41:17.253Z,1.53
2018-08-31T18:43:46.213Z,2.67
2018-08-31T18:46:14.580Z,2.30
2018-08-31T18:48:42.881Z,2.30
2018-08-31T18:51:11.245Z,1.80
2018-08-31T18:53:39.554Z,3.70
2018-08-31T18:56:07.924Z,2.93
2018-08-31T18:58:36.217Z,1.70
2018-08-31T19:01:04.617Z,3.17
2018-08-31T19:03:32.936Z,2.33
2018-08-31T19:06:01.508Z,2.17
2018-08-31T19:08:29.825Z,2.70
2018-08-31T19:10:58.148Z,5.60
2018-08-31T19:13:32.847Z,5.53
2018-08-31T19:16:01.437Z,4.87
2018-08-31T19:18:29.816Z,2.60
2018-08-31T19:20:58.252Z,2.63
2018-08-31T19:23:26.622Z,6.73
2018-08-31T19:26:02.532Z,2.70
2018-08-31T19:28:32.715Z,6.30
2018-08-31T19:31:01.757Z,8.70
2018-08-31T19:33:30.078Z,5.73
2018-08-31T19:35:59.042Z,3.60
2018-08-31T19:38:27.443Z,8.57
2018-08-31T19:40:55.866Z,9.70
2018-08-31T19:43:24.165Z,5.10
2018-08-31T19:45:52.475Z,5.77
2018-08-31T19:48:21.222Z,3.30
2018-08-31T19:50:49.573Z,2.80
2018-08-31T19:53:17.886Z,2.70
2018-08-31T19:55:46.216Z,2.50
2018-08-31T19:58:14.509Z,1.57
2018-08-31T20:00:42.917Z,1.97
2018-08-31T20:03:11.304Z,1.97
2018-08-31T20:05:39.927Z,2.77
2018-08-31T20:08:08.286Z,1.63
2018-08-31T20:10:36.625Z,2.33
2018-08-31T20:13:04.964Z,4.17
2018-08-31T20:15:33.297Z,9.80
2018-08-31T20:18:01.782Z,6.43
2018-08-31T20:20:30.089Z,2.80
2018-08-31T20:22:58.404Z,3.37
2018-08-31T20:25:26.774Z,6.60
2018-08-31T20:27:55.149Z,8.27
2018-08-31T20:30:23.517Z,21.07
2018-08-31T20:32:51.847Z,8.43
2018-08-31T20:35:20.249Z,5.50
2018-08-31T20:37:48.597Z,14.53
2018-08-31T20:40:17.460Z,7.37
2018-08-31T20:42:45.785Z,2.80
2018-08-31T20:45:14.115Z,2.40
2018-08-31T20:47:43.081Z,5.70
2018-08-31T20:50:12.180Z,6.60
2018-08-31T20:52:40.532Z,3.97
2018-08-31T20:55:08.849Z,2.60
2018-08-31T20:57:37.212Z,3.80
2018-08-31T21:00:06.022Z,1.77
2018-08-31T21:02:34.349Z,1.93
2018-08-31T21:05:03.355Z,1.90
2018-08-31T21:07:32.353Z,1.93
2018-08-31T21:10:00.697Z,2.23
2018-08-31T21:12:29.016Z,3.10
2018-08-31T21:14:57.758Z,2.17
2018-08-31T21:17:26.065Z,3.10
2018-08-31T21:19:54.395Z,3.60
2018-08-31T21:22:22.719Z,5.37
2018-08-31T21:24:51.065Z,5.53
2018-08-31T21:27:19.460Z,4.63
2018-08-31T21:29:47.807Z,5.20
2018-08-31T21:32:16.254Z,9.90
2018-08-31T21:34:44.457Z,9.33
2018-08-31T21:37:12.776Z,8.50
2018-08-31T21:39:41.148Z,7.17
2018-08-31T21:42:09.591Z,9.27
2018-08-31T21:44:38.469Z,13.83
2018-08-31T21:47:06.872Z,6.60
2018-08-31T21:49:35.220Z,7.60
2018-08-31T21:52:03.572Z,12.20
2018-08-31T21:54:31.932Z,16.53
2018-08-31T21:57:00.941Z,9.03
2018-08-31T21:59:29.254Z,5.00
2018-08-31T22:01:57.572Z,6.80
2018-08-31T22:04:25.900Z,4.10
2018-08-31T22:06:54.227Z,16.47
2018-08-31T22:09:22.612Z,17.57
2018-08-31T22:11:50.998Z,16.17
2018-08-31T22:14:19.324Z,6.53
2018-08-31T22:16:47.664Z,6.90
2018-08-31T22:19:16.097Z,2.30
2018-08-31T22:21:44.443Z,2.37
2018-08-31T22:24:12.772Z,2.77
2018-08-31T22:26:41.090Z,2.37
2018-08-31T22:29:09.446Z,2.03
2018-08-31T22:31:38.401Z,2.10
2018-08-31T22:34:06.733Z,2.70
2018-08-31T22:36:35.113Z,1.93
2018-08-31T22:39:03.589Z,2.70
2018-08-31T22:41:31.938Z,2.07
2018-08-31T22:44:00.277Z,3.00
2018-08-31T22:46:28.618Z,2.90
2018-08-31T22:48:56.949Z,2.60
2018-08-31T22:51:25.252Z,2.00
2018-08-31T22:53:53.551Z,2.97
2018-08-31T22:56:21.876Z,2.93
2018-08-31T22:58:50.223Z,2.97
2018-08-31T23:01:19.001Z,2.63
2018-08-31T23:03:47.321Z,2.50
2018-08-31T23:06:15.636Z,2.40
2018-08-31T23:08:43.953Z,2.67
2018-08-31T23:11:12.559Z,2.57
2018-08-31T23:13:43.209Z,6.83
2018-08-31T23:16:11.549Z,3.60
2018-08-31T23:18:40.154Z,3.00
2018-08-31T23:21:09.154Z,3.27
2018-08-31T23:23:42.626Z,2.77
2018-08-31T23:26:10.956Z,3.00
2018-08-31T23:28:39.925Z,2.30
2018-08-31T23:31:08.265Z,2.27
2018-08-31T23:33:36.592Z,1.97
2018-08-31T23:36:06.491Z,3.10
2018-08-31T23:38:34.816Z,2.77
2018-08-31T23:41:03.121Z,2.60
2018-08-31T23:43:31.470Z,3.20
2018-08-31T23:46:00.104Z,2.80
2018-08-31T23:48:28.431Z,2.90
2018-08-31T23:50:56.735Z,2.70
2018-08-31T23:53:25.100Z,3.23
2018-08-31T23:55:53.392Z,2.70
2018-08-31T23:58:21.721Z,3.40
